Impacts METAR Board
IDs:

KSAT - San Antonio Intl, TX, US

Updated at: 0300 UTC 06 Dec 2019
Potential Impact None Slight Moderate High
Time 05/15Z 05/16Z 05/17Z 05/18Z 05/19Z 05/20Z 05/21Z 05/22Z 05/23Z 06/00Z 06/01Z 06/02Z 06/03Z
Temp59 60 61 64 67 68 70 72 71 69 66 62 61
Dewpt58 59 59 59 59 59 60 60 60 60 59 58 57
Altim30.06 30.08 30.07 30.06 30.02 29.98 29.97 29.95 29.96 29.96 29.97 29.98 29.99
VIS0.25 0.25 0.25 10 10 10 10 10 10 10 10 10 10
CIG1 2 3 5 10 150 180 250 250 250 -- -- --
CoverOVXOVCOVCOVCOVCBKNBKNBKNBKNBKNSCTSCTSCT
FltCatLIFRLIFRLIFRIFRMVFRVFRVFRVFRVFRVFRVFRVFRVFR
WXFGFG-DZ BR--------------------
WDir200220220210200200200200170003200
WSpd3 4 7 10 9 5 8 7 4 0 0 4 0
WGst-- -- -- -- -- -- -- -- -- -- -- -- --
Raw hourly METARs
KSAT 051451Z 20003KT 1/4SM R13R/3500V4000FT FG VV001 15/14 A3006 RMK AO2 SLP166 T01500144 53010
KSAT 051551Z 22004KT 1/4SM R13R/4500VP6000FT FG OVC002 16/15 A3008 RMK AO2 SFC VIS 1/2 SLP175 T01560150
KSAT 051651Z 22007KT 1/4SM R13R/5500VP6000FT -DZ BR OVC003 16/15 A3007 RMK AO2 SFC VIS 1 1/4 DZB09 SLP172 TWR IN CLDS P0000 T01610150
KSAT 051751Z 21010KT 10SM OVC005 18/15 A3006 RMK AO2 DZE12 SLP167 P0000 60000 T01780150 10178 20128 50001
KSAT 051851Z 20009KT 10SM BKN010 OVC150 19/15 A3002 RMK AO2 SLP153 T01940150
KSAT 052005Z 20005KT 10SM SCT015 BKN150 BKN250 20/15 A2998 RMK AO2 T02000150
KSAT 052051Z 20008KT 10SM FEW018 BKN180 BKN250 21/16 A2997 RMK AO2 SLP134 T02110156 56030
KSAT 052151Z 20007KT 10SM FEW020 FEW180 BKN250 22/16 A2995 RMK AO2 SLP130 T02220156
KSAT 052251Z 17004KT 10SM SCT180 BKN250 22/16 A2996 RMK AO2 SLP131 T02170156
KSAT 052351Z 00000KT 10SM SCT180 BKN250 21/16 A2996 RMK AO2 SLP131 T02060156 10222 20178 56003
KSAT 060051Z 00000KT 10SM FEW180 SCT250 19/15 A2997 RMK AO2 SLP137 T01890150
KSAT 060151Z 32004KT 10SM FEW180 SCT250 17/14 A2998 RMK AO2 SLP140 T01670144
KSAT 060251Z 00000KT 10SM FEW180 SCT250 16/14 A2999 RMK AO2 SLP144 T01610139 51012